KGPT/GPT METAR and TAF weather

Enter ICAO airport designator
Station Type Date Time Source
KGPT METAR 2024/04/17 19:00 UTC NOAA

KGPT 171900Z 17009KT 10SM BKN016 OVC024 25/21 A3008 RMK AO2 T02500206


Station Type Date Time Source
KGPT Decoded METAR 2024/04/17 19:00 UTC NOAA

GULFPORT-BILOXI REG AIRPORT , MS, United States (KGPT) 30-25N 089-05W 14M
Apr 17, 2024 - 03:00 PM EDT / 2024.04.17 1900 UTC
Wind: from the S (170 degrees) at 10 MPH (9 KT):0
Visibility: 10 mile(s):0
Sky conditions: overcast
Temperature: 77.0 F (25.0 C)
Dew Point: 69.1 F (20.6 C)
Relative Humidity: 76%
Pressure (altimeter): 30.08 in. Hg (1018 hPa)
ob: KGPT 171900Z 17009KT 10SM BKN016 OVC024 25/21 A3008 RMK AO2 T02500206
cycle: 19

Station Type Date Time Source
KGPT TAF 2024/04/17 18:24 UTC NOAA